sensor_id;sensor_type;location;lat;lon;timestamp;temperature;humidity
65478;SHT31;53678;39.642;22.430;2023-05-02T00:00:12;15.31;81.29
65478;SHT31;53678;39.642;22.430;2023-05-02T00:02:38;15.47;80.61
65478;SHT31;53678;39.642;22.430;2023-05-02T00:05:04;15.46;80.91
65478;SHT31;53678;39.642;22.430;2023-05-02T00:07:32;15.72;81.40
65478;SHT31;53678;39.642;22.430;2023-05-02T00:09:58;15.84;79.13
65478;SHT31;53678;39.642;22.430;2023-05-02T00:12:26;15.58;79.95
65478;SHT31;53678;39.642;22.430;2023-05-02T00:14:52;15.24;81.59
65478;SHT31;53678;39.642;22.430;2023-05-02T00:17:18;15.06;82.59
65478;SHT31;53678;39.642;22.430;2023-05-02T00:19:45;15.19;82.00
65478;SHT31;53678;39.642;22.430;2023-05-02T00:22:10;15.07;82.35
65478;SHT31;53678;39.642;22.430;2023-05-02T00:24:36;15.20;81.59
65478;SHT31;53678;39.642;22.430;2023-05-02T00:27:02;15.29;81.60
65478;SHT31;53678;39.642;22.430;2023-05-02T00:29:28;15.24;81.35
65478;SHT31;53678;39.642;22.430;2023-05-02T00:31:54;15.29;81.46
65478;SHT31;53678;39.642;22.430;2023-05-02T00:34:20;15.38;81.17
65478;SHT31;53678;39.642;22.430;2023-05-02T00:36:46;15.37;81.11
65478;SHT31;53678;39.642;22.430;2023-05-02T00:39:12;15.47;80.79
65478;SHT31;53678;39.642;22.430;2023-05-02T00:41:38;15.46;80.93
65478;SHT31;53678;39.642;22.430;2023-05-02T00:44:04;15.40;81.18
65478;SHT31;53678;39.642;22.430;2023-05-02T00:46:30;15.46;80.89
65478;SHT31;53678;39.642;22.430;2023-05-02T00:48:55;15.46;81.08
65478;SHT31;53678;39.642;22.430;2023-05-02T00:51:21;15.50;80.85
65478;SHT31;53678;39.642;22.430;2023-05-02T00:53:48;15.54;80.69
65478;SHT31;53678;39.642;22.430;2023-05-02T00:56:13;15.48;80.81
65478;SHT31;53678;39.642;22.430;2023-05-02T00:58:40;15.53;80.80
65478;SHT31;53678;39.642;22.430;2023-05-02T01:12:41;14.89;84.14
65478;SHT31;53678;39.642;22.430;2023-05-02T01:15:09;14.82;84.85
65478;SHT31;53678;39.642;22.430;2023-05-02T01:17:37;15.00;83.59
65478;SHT31;53678;39.642;22.430;2023-05-02T01:20:07;15.10;83.27
65478;SHT31;53678;39.642;22.430;2023-05-02T01:22:37;15.34;82.59
65478;SHT31;53678;39.642;22.430;2023-05-02T01:28:28;15.55;81.73
65478;SHT31;53678;39.642;22.430;2023-05-02T01:30:56;15.31;81.92
65478;SHT31;53678;39.642;22.430;2023-05-02T01:33:24;14.90;83.80
65478;SHT31;53678;39.642;22.430;2023-05-02T01:35:51;14.99;83.32
65478;SHT31;53678;39.642;22.430;2023-05-02T01:38:18;15.26;82.85
65478;SHT31;53678;39.642;22.430;2023-05-02T01:40:46;15.38;82.31
65478;SHT31;53678;39.642;22.430;2023-05-02T01:43:15;15.23;82.65
65478;SHT31;53678;39.642;22.430;2023-05-02T01:45:43;15.36;82.72
65478;SHT31;53678;39.642;22.430;2023-05-02T01:48:10;14.73;83.87
65478;SHT31;53678;39.642;22.430;2023-05-02T01:50:40;14.78;84.27
65478;SHT31;53678;39.642;22.430;2023-05-02T01:53:07;14.88;83.55
65478;SHT31;53678;39.642;22.430;2023-05-02T01:55:37;14.83;83.71
65478;SHT31;53678;39.642;22.430;2023-05-02T01:58:05;14.73;84.05
65478;SHT31;53678;39.642;22.430;2023-05-02T02:00:32;14.76;84.01
65478;SHT31;53678;39.642;22.430;2023-05-02T02:02:58;14.72;84.31
65478;SHT31;53678;39.642;22.430;2023-05-02T02:05:26;14.78;83.77
65478;SHT31;53678;39.642;22.430;2023-05-02T02:07:52;14.82;83.33
65478;SHT31;53678;39.642;22.430;2023-05-02T02:10:18;14.71;83.81
65478;SHT31;53678;39.642;22.430;2023-05-02T02:12:52;14.78;84.21
65478;SHT31;53678;39.642;22.430;2023-05-02T02:15:22;14.75;84.09
65478;SHT31;53678;39.642;22.430;2023-05-02T02:18:01;14.78;84.05
65478;SHT31;53678;39.642;22.430;2023-05-02T02:20:30;14.46;84.92
65478;SHT31;53678;39.642;22.430;2023-05-02T02:22:58;14.64;84.61
65478;SHT31;53678;39.642;22.430;2023-05-02T02:25:25;14.35;86.03
65478;SHT31;53678;39.642;22.430;2023-05-02T02:27:51;14.38;85.76
65478;SHT31;53678;39.642;22.430;2023-05-02T02:30:18;14.42;85.63
65478;SHT31;53678;39.642;22.430;2023-05-02T02:32:43;14.52;85.36
65478;SHT31;53678;39.642;22.430;2023-05-02T02:35:09;14.52;85.30
65478;SHT31;53678;39.642;22.430;2023-05-02T02:37:43;14.62;85.01
65478;SHT31;53678;39.642;22.430;2023-05-02T02:40:31;14.65;84.50
65478;SHT31;53678;39.642;22.430;2023-05-02T02:43:15;14.79;84.13
65478;SHT31;53678;39.642;22.430;2023-05-02T02:48:49;14.88;83.58
65478;SHT31;53678;39.642;22.430;2023-05-02T02:54:12;14.59;84.14
65478;SHT31;53678;39.642;22.430;2023-05-02T02:56:41;14.52;84.80
65478;SHT31;53678;39.642;22.430;2023-05-02T02:59:25;14.49;84.91
65478;SHT31;53678;39.642;22.430;2023-05-02T03:02:00;14.54;84.90
65478;SHT31;53678;39.642;22.430;2023-05-02T03:04:30;14.58;84.45
65478;SHT31;53678;39.642;22.430;2023-05-02T03:06:57;14.59;84.81
65478;SHT31;53678;39.642;22.430;2023-05-02T03:09:24;14.55;84.48
65478;SHT31;53678;39.642;22.430;2023-05-02T03:11:55;14.54;84.97
65478;SHT31;53678;39.642;22.430;2023-05-02T03:14:23;14.62;84.26
65478;SHT31;53678;39.642;22.430;2023-05-02T03:16:48;14.67;84.36
65478;SHT31;53678;39.642;22.430;2023-05-02T03:19:14;14.62;83.97
65478;SHT31;53678;39.642;22.430;2023-05-02T03:21:40;14.69;83.53
65478;SHT31;53678;39.642;22.430;2023-05-02T03:24:14;14.71;83.53
65478;SHT31;53678;39.642;22.430;2023-05-02T03:26:41;14.78;83.07
65478;SHT31;53678;39.642;22.430;2023-05-02T03:29:09;14.80;82.79
65478;SHT31;53678;39.642;22.430;2023-05-02T03:31:38;14.86;82.52
65478;SHT31;53678;39.642;22.430;2023-05-02T03:34:04;14.92;82.02
65478;SHT31;53678;39.642;22.430;2023-05-02T03:36:31;15.19;81.16
65478;SHT31;53678;39.642;22.430;2023-05-02T03:38:57;15.02;81.95
65478;SHT31;53678;39.642;22.430;2023-05-02T03:41:23;14.99;81.02
65478;SHT31;53678;39.642;22.430;2023-05-02T03:43:55;15.03;81.78
65478;SHT31;53678;39.642;22.430;2023-05-02T03:46:23;14.93;81.47
65478;SHT31;53678;39.642;22.430;2023-05-02T03:48:49;15.19;81.16
65478;SHT31;53678;39.642;22.430;2023-05-02T03:51:15;14.93;81.83
65478;SHT31;53678;39.642;22.430;2023-05-02T03:53:45;14.73;82.03
65478;SHT31;53678;39.642;22.430;2023-05-02T03:56:11;14.83;82.04
65478;SHT31;53678;39.642;22.430;2023-05-02T03:58:47;14.85;81.79
65478;SHT31;53678;39.642;22.430;2023-05-02T04:01:17;14.80;82.23
65478;SHT31;53678;39.642;22.430;2023-05-02T04:03:46;14.89;82.19
65478;SHT31;53678;39.642;22.430;2023-05-02T04:06:15;14.96;81.83
65478;SHT31;53678;39.642;22.430;2023-05-02T04:08:43;15.04;81.43
65478;SHT31;53678;39.642;22.430;2023-05-02T04:11:08;14.96;81.78
65478;SHT31;53678;39.642;22.430;2023-05-02T04:13:34;14.83;82.26
65478;SHT31;53678;39.642;22.430;2023-05-02T04:16:00;14.79;82.34
65478;SHT31;53678;39.642;22.430;2023-05-02T04:18:29;14.88;82.01
65478;SHT31;53678;39.642;22.430;2023-05-02T04:20:56;14.90;82.16
65478;SHT31;53678;39.642;22.430;2023-05-02T04:23:23;15.04;81.70
65478;SHT31;53678;39.642;22.430;2023-05-02T04:25:54;15.10;81.53
65478;SHT31;53678;39.642;22.430;2023-05-02T04:28:27;15.04;81.45
65478;SHT31;53678;39.642;22.430;2023-05-02T04:30:55;14.69;83.28
65478;SHT31;53678;39.642;22.430;2023-05-02T04:33:22;14.80;82.79
65478;SHT31;53678;39.642;22.430;2023-05-02T04:44:08;15.75;79.18
65478;SHT31;53678;39.642;22.430;2023-05-02T04:46:35;15.64;79.41
65478;SHT31;53678;39.642;22.430;2023-05-02T04:49:01;15.77;79.13
65478;SHT31;53678;39.642;22.430;2023-05-02T04:51:28;15.88;78.37
65478;SHT31;53678;39.642;22.430;2023-05-02T04:53:57;16.37;77.70
65478;SHT31;53678;39.642;22.430;2023-05-02T04:56:29;16.15;77.40
65478;SHT31;53678;39.642;22.430;2023-05-02T04:58:55;16.20;77.64
65478;SHT31;53678;39.642;22.430;2023-05-02T05:01:21;16.29;76.94
65478;SHT31;53678;39.642;22.430;2023-05-02T05:03:49;16.33;77.07
65478;SHT31;53678;39.642;22.430;2023-05-02T05:06:16;16.47;76.78
65478;SHT31;53678;39.642;22.430;2023-05-02T05:08:43;16.81;76.01
65478;SHT31;53678;39.642;22.430;2023-05-02T05:11:11;17.25;75.05
65478;SHT31;53678;39.642;22.430;2023-05-02T05:13:38;17.60;73.82
65478;SHT31;53678;39.642;22.430;2023-05-02T05:16:05;17.81;72.80
65478;SHT31;53678;39.642;22.430;2023-05-02T05:18:32;17.80;72.33
65478;SHT31;53678;39.642;22.430;2023-05-02T05:21:06;17.56;72.91
65478;SHT31;53678;39.642;22.430;2023-05-02T05:23:34;17.90;73.12
65478;SHT31;53678;39.642;22.430;2023-05-02T05:29:51;17.97;71.78
65478;SHT31;53678;39.642;22.430;2023-05-02T05:32:17;18.17;71.91
65478;SHT31;53678;39.642;22.430;2023-05-02T05:34:43;17.83;72.66
65478;SHT31;53678;39.642;22.430;2023-05-02T05:37:09;17.49;73.93
65478;SHT31;53678;39.642;22.430;2023-05-02T05:39:35;17.50;74.21
65478;SHT31;53678;39.642;22.430;2023-05-02T05:49:35;17.91;72.63
65478;SHT31;53678;39.642;22.430;2023-05-02T05:52:01;18.02;72.24
65478;SHT31;53678;39.642;22.430;2023-05-02T05:54:28;18.55;71.24
65478;SHT31;53678;39.642;22.430;2023-05-02T06:00:41;19.47;68.53
65478;SHT31;53678;39.642;22.430;2023-05-02T06:03:07;19.90;67.43
65478;SHT31;53678;39.642;22.430;2023-05-02T06:05:33;19.68;67.86
65478;SHT31;53678;39.642;22.430;2023-05-02T06:07:59;19.54;68.16
65478;SHT31;53678;39.642;22.430;2023-05-02T06:10:25;19.00;70.46
65478;SHT31;53678;39.642;22.430;2023-05-02T06:12:53;18.60;71.12
65478;SHT31;53678;39.642;22.430;2023-05-02T06:15:23;18.24;71.95
65478;SHT31;53678;39.642;22.430;2023-05-02T06:17:50;17.79;73.64
65478;SHT31;53678;39.642;22.430;2023-05-02T06:20:16;17.63;72.78
65478;SHT31;53678;39.642;22.430;2023-05-02T06:22:42;17.60;73.03
65478;SHT31;53678;39.642;22.430;2023-05-02T06:25:08;17.69;72.96
65478;SHT31;53678;39.642;22.430;2023-05-02T06:27:34;17.65;71.62
65478;SHT31;53678;39.642;22.430;2023-05-02T06:30:00;17.65;71.18
65478;SHT31;53678;39.642;22.430;2023-05-02T06:32:29;18.20;69.76
65478;SHT31;53678;39.642;22.430;2023-05-02T06:34:56;18.63;68.97
65478;SHT31;53678;39.642;22.430;2023-05-02T06:37:22;19.03;67.98
65478;SHT31;53678;39.642;22.430;2023-05-02T06:39:47;18.99;67.36
65478;SHT31;53678;39.642;22.430;2023-05-02T06:42:13;19.23;66.91
65478;SHT31;53678;39.642;22.430;2023-05-02T06:44:39;19.38;67.15
65478;SHT31;53678;39.642;22.430;2023-05-02T06:47:05;19.27;67.11
65478;SHT31;53678;39.642;22.430;2023-05-02T06:49:32;19.03;66.98
65478;SHT31;53678;39.642;22.430;2023-05-02T06:51:57;19.24;66.24
65478;SHT31;53678;39.642;22.430;2023-05-02T06:54:23;19.51;65.51
65478;SHT31;53678;39.642;22.430;2023-05-02T06:56:49;19.88;64.97
65478;SHT31;53678;39.642;22.430;2023-05-02T06:59:15;19.37;65.84
65478;SHT31;53678;39.642;22.430;2023-05-02T07:01:44;19.24;65.96
65478;SHT31;53678;39.642;22.430;2023-05-02T07:04:10;18.89;66.64
65478;SHT31;53678;39.642;22.430;2023-05-02T07:06:36;18.99;66.41
65478;SHT31;53678;39.642;22.430;2023-05-02T07:09:02;18.85;66.81
65478;SHT31;53678;39.642;22.430;2023-05-02T07:11:29;18.93;65.66
65478;SHT31;53678;39.642;22.430;2023-05-02T07:13:56;19.35;65.97
65478;SHT31;53678;39.642;22.430;2023-05-02T07:16:22;19.07;65.92
65478;SHT31;53678;39.642;22.430;2023-05-02T07:18:48;19.02;65.57
65478;SHT31;53678;39.642;22.430;2023-05-02T07:21:13;19.17;65.38
65478;SHT31;53678;39.642;22.430;2023-05-02T07:23:39;19.26;65.88
65478;SHT31;53678;39.642;22.430;2023-05-02T07:26:05;19.26;65.54
65478;SHT31;53678;39.642;22.430;2023-05-02T07:28:31;19.38;64.38
65478;SHT31;53678;39.642;22.430;2023-05-02T07:30:57;19.61;64.68
65478;SHT31;53678;39.642;22.430;2023-05-02T07:33:22;19.57;64.26
65478;SHT31;53678;39.642;22.430;2023-05-02T07:35:49;19.43;63.69
65478;SHT31;53678;39.642;22.430;2023-05-02T07:38:15;19.64;63.73
65478;SHT31;53678;39.642;22.430;2023-05-02T07:40:41;19.54;63.60
65478;SHT31;53678;39.642;22.430;2023-05-02T07:43:08;19.64;63.02
65478;SHT31;53678;39.642;22.430;2023-05-02T07:45:34;19.64;63.52
65478;SHT31;53678;39.642;22.430;2023-05-02T07:48:00;19.48;64.58
65478;SHT31;53678;39.642;22.430;2023-05-02T07:50:26;19.10;65.24
65478;SHT31;53678;39.642;22.430;2023-05-02T07:52:54;19.27;65.64
65478;SHT31;53678;39.642;22.430;2023-05-02T07:55:20;19.46;64.61
65478;SHT31;53678;39.642;22.430;2023-05-02T07:57:46;19.16;65.67
65478;SHT31;53678;39.642;22.430;2023-05-02T08:00:12;19.24;66.15
65478;SHT31;53678;39.642;22.430;2023-05-02T08:02:41;19.21;65.30
65478;SHT31;53678;39.642;22.430;2023-05-02T08:05:07;19.23;65.61
65478;SHT31;53678;39.642;22.430;2023-05-02T08:07:34;19.31;65.29
65478;SHT31;53678;39.642;22.430;2023-05-02T08:10:00;19.69;65.02
65478;SHT31;53678;39.642;22.430;2023-05-02T08:12:26;19.57;64.52
65478;SHT31;53678;39.642;22.430;2023-05-02T08:14:52;19.85;64.38
65478;SHT31;53678;39.642;22.430;2023-05-02T08:17:18;19.86;63.23
65478;SHT31;53678;39.642;22.430;2023-05-02T08:19:44;19.85;62.82
65478;SHT31;53678;39.642;22.430;2023-05-02T08:22:10;19.75;63.40
65478;SHT31;53678;39.642;22.430;2023-05-02T08:24:35;19.88;64.02
65478;SHT31;53678;39.642;22.430;2023-05-02T08:27:01;19.21;64.41
65478;SHT31;53678;39.642;22.430;2023-05-02T08:29:29;19.24;63.43
65478;SHT31;53678;39.642;22.430;2023-05-02T08:31:55;19.34;63.96
65478;SHT31;53678;39.642;22.430;2023-05-02T08:34:21;19.65;63.96
65478;SHT31;53678;39.642;22.430;2023-05-02T08:36:47;19.41;64.40
65478;SHT31;53678;39.642;22.430;2023-05-02T08:39:12;19.41;64.63
65478;SHT31;53678;39.642;22.430;2023-05-02T08:41:38;19.43;63.96
65478;SHT31;53678;39.642;22.430;2023-05-02T08:44:05;19.27;63.62
65478;SHT31;53678;39.642;22.430;2023-05-02T08:46:35;19.39;63.13
65478;SHT31;53678;39.642;22.430;2023-05-02T08:49:01;19.85;61.56
65478;SHT31;53678;39.642;22.430;2023-05-02T08:51:28;19.86;59.97
65478;SHT31;53678;39.642;22.430;2023-05-02T08:53:54;20.26;60.47
65478;SHT31;53678;39.642;22.430;2023-05-02T08:56:20;20.00;59.24
65478;SHT31;53678;39.642;22.430;2023-05-02T08:58:46;20.00;58.27
65478;SHT31;53678;39.642;22.430;2023-05-02T09:01:17;19.69;59.19
65478;SHT31;53678;39.642;22.430;2023-05-02T09:03:54;19.59;58.88
65478;SHT31;53678;39.642;22.430;2023-05-02T09:06:22;19.74;58.00
65478;SHT31;53678;39.642;22.430;2023-05-02T09:08:49;19.72;57.67
65478;SHT31;53678;39.642;22.430;2023-05-02T09:11:17;20.06;57.18
65478;SHT31;53678;39.642;22.430;2023-05-02T09:13:47;19.86;58.01
65478;SHT31;53678;39.642;22.430;2023-05-02T09:16:14;19.88;56.90
65478;SHT31;53678;39.642;22.430;2023-05-02T09:18:42;19.83;57.85
65478;SHT31;53678;39.642;22.430;2023-05-02T09:23:38;19.92;58.76
65478;SHT31;53678;39.642;22.430;2023-05-02T09:26:15;19.68;57.18
65478;SHT31;53678;39.642;22.430;2023-05-02T09:28:43;19.47;57.51
65478;SHT31;53678;39.642;22.430;2023-05-02T09:31:10;19.58;58.02
65478;SHT31;53678;39.642;22.430;2023-05-02T09:33:40;19.46;58.06
65478;SHT31;53678;39.642;22.430;2023-05-02T09:36:07;19.34;58.65
65478;SHT31;53678;39.642;22.430;2023-05-02T09:38:34;19.41;59.47
65478;SHT31;53678;39.642;22.430;2023-05-02T09:41:00;19.50;58.06
65478;SHT31;53678;39.642;22.430;2023-05-02T09:43:28;19.83;57.63
65478;SHT31;53678;39.642;22.430;2023-05-02T09:46:06;19.82;58.39
65478;SHT31;53678;39.642;22.430;2023-05-02T09:48:50;19.78;57.76
65478;SHT31;53678;39.642;22.430;2023-05-02T09:51:17;19.74;57.21
65478;SHT31;53678;39.642;22.430;2023-05-02T09:53:43;19.61;58.78
65478;SHT31;53678;39.642;22.430;2023-05-02T09:56:10;19.75;58.12
65478;SHT31;53678;39.642;22.430;2023-05-02T09:58:36;19.46;58.86
65478;SHT31;53678;39.642;22.430;2023-05-02T10:01:03;19.54;58.68
65478;SHT31;53678;39.642;22.430;2023-05-02T10:03:29;19.55;56.20
65478;SHT31;53678;39.642;22.430;2023-05-02T10:05:56;19.89;56.65
65478;SHT31;53678;39.642;22.430;2023-05-02T10:08:27;19.78;55.81
65478;SHT31;53678;39.642;22.430;2023-05-02T10:10:59;19.76;55.51
65478;SHT31;53678;39.642;22.430;2023-05-02T10:13:31;19.39;56.43
65478;SHT31;53678;39.642;22.430;2023-05-02T10:16:06;19.31;55.44
65478;SHT31;53678;39.642;22.430;2023-05-02T10:18:41;19.11;56.80
65478;SHT31;53678;39.642;22.430;2023-05-02T10:21:09;19.41;56.17
65478;SHT31;53678;39.642;22.430;2023-05-02T10:23:40;19.39;55.42
65478;SHT31;53678;39.642;22.430;2023-05-02T10:26:06;19.30;54.98
65478;SHT31;53678;39.642;22.430;2023-05-02T10:28:33;19.51;55.58
65478;SHT31;53678;39.642;22.430;2023-05-02T10:31:01;19.28;56.26
65478;SHT31;53678;39.642;22.430;2023-05-02T10:33:27;19.26;55.19
65478;SHT31;53678;39.642;22.430;2023-05-02T10:35:57;19.34;56.26
65478;SHT31;53678;39.642;22.430;2023-05-02T10:38:23;19.35;56.37
65478;SHT31;53678;39.642;22.430;2023-05-02T10:40:53;19.30;56.82
65478;SHT31;53678;39.642;22.430;2023-05-02T10:43:26;19.43;56.69
65478;SHT31;53678;39.642;22.430;2023-05-02T10:45:52;19.41;57.39
65478;SHT31;53678;39.642;22.430;2023-05-02T10:50:50;19.51;54.39
65478;SHT31;53678;39.642;22.430;2023-05-02T10:53:37;19.67;54.54
65478;SHT31;53678;39.642;22.430;2023-05-02T10:56:18;19.76;54.46
65478;SHT31;53678;39.642;22.430;2023-05-02T10:58:49;19.83;55.00
65478;SHT31;53678;39.642;22.430;2023-05-02T11:03:55;19.86;55.47
65478;SHT31;53678;39.642;22.430;2023-05-02T11:06:24;19.65;55.07
65478;SHT31;53678;39.642;22.430;2023-05-02T11:08:51;19.48;55.10
65478;SHT31;53678;39.642;22.430;2023-05-02T11:11:39;19.50;55.32
65478;SHT31;53678;39.642;22.430;2023-05-02T11:14:07;19.72;54.07
65478;SHT31;53678;39.642;22.430;2023-05-02T11:19:27;19.71;54.26
65478;SHT31;53678;39.642;22.430;2023-05-02T11:24:52;19.68;54.34
65478;SHT31;53678;39.642;22.430;2023-05-02T11:35:17;19.85;52.86
65478;SHT31;53678;39.642;22.430;2023-05-02T11:40:24;19.31;53.27
65478;SHT31;53678;39.642;22.430;2023-05-02T11:42:49;19.34;54.13
65478;SHT31;53678;39.642;22.430;2023-05-02T11:45:16;19.20;54.94
65478;SHT31;53678;39.642;22.430;2023-05-02T11:47:42;19.30;55.30
65478;SHT31;53678;39.642;22.430;2023-05-02T11:50:08;19.35;55.66
65478;SHT31;53678;39.642;22.430;2023-05-02T11:52:38;19.28;56.06
65478;SHT31;53678;39.642;22.430;2023-05-02T11:55:05;19.10;55.97
65478;SHT31;53678;39.642;22.430;2023-05-02T11:57:33;19.07;56.43
65478;SHT31;53678;39.642;22.430;2023-05-02T11:59:59;19.10;57.01
65478;SHT31;53678;39.642;22.430;2023-05-02T12:02:42;19.10;55.90
65478;SHT31;53678;39.642;22.430;2023-05-02T12:05:10;18.95;56.59
65478;SHT31;53678;39.642;22.430;2023-05-02T12:07:44;18.92;57.08
65478;SHT31;53678;39.642;22.430;2023-05-02T12:10:12;18.86;57.22
65478;SHT31;53678;39.642;22.430;2023-05-02T12:12:38;18.89;57.47
65478;SHT31;53678;39.642;22.430;2023-05-02T12:15:09;18.88;58.08
65478;SHT31;53678;39.642;22.430;2023-05-02T12:17:39;18.89;58.46
65478;SHT31;53678;39.642;22.430;2023-05-02T12:20:09;18.77;57.52
65478;SHT31;53678;39.642;22.430;2023-05-02T12:22:35;18.79;57.58
65478;SHT31;53678;39.642;22.430;2023-05-02T12:25:01;18.83;57.41
65478;SHT31;53678;39.642;22.430;2023-05-02T12:27:28;18.66;57.57
65478;SHT31;53678;39.642;22.430;2023-05-02T12:29:54;18.73;57.89
65478;SHT31;53678;39.642;22.430;2023-05-02T12:32:29;18.62;58.76
65478;SHT31;53678;39.642;22.430;2023-05-02T12:34:56;18.42;59.58
65478;SHT31;53678;39.642;22.430;2023-05-02T12:37:26;18.48;59.65
65478;SHT31;53678;39.642;22.430;2023-05-02T12:39:52;18.45;59.69
65478;SHT31;53678;39.642;22.430;2023-05-02T12:42:24;18.49;60.02
65478;SHT31;53678;39.642;22.430;2023-05-02T12:44:51;18.41;60.11
65478;SHT31;53678;39.642;22.430;2023-05-02T12:47:18;18.39;60.40
65478;SHT31;53678;39.642;22.430;2023-05-02T12:49:54;18.31;59.49
65478;SHT31;53678;39.642;22.430;2023-05-02T12:52:45;18.28;58.75
65478;SHT31;53678;39.642;22.430;2023-05-02T12:55:19;18.18;59.27
65478;SHT31;53678;39.642;22.430;2023-05-02T12:57:46;18.45;58.92
65478;SHT31;53678;39.642;22.430;2023-05-02T13:00:12;18.22;58.69
65478;SHT31;53678;39.642;22.430;2023-05-02T13:02:41;18.18;58.77
65478;SHT31;53678;39.642;22.430;2023-05-02T13:05:16;18.34;58.39
65478;SHT31;53678;39.642;22.430;2023-05-02T13:07:42;18.21;57.15
65478;SHT31;53678;39.642;22.430;2023-05-02T13:10:09;18.22;56.45
65478;SHT31;53678;39.642;22.430;2023-05-02T13:12:35;18.28;56.47
65478;SHT31;53678;39.642;22.430;2023-05-02T13:15:07;18.17;55.47
65478;SHT31;53678;39.642;22.430;2023-05-02T13:17:34;18.10;55.77
65478;SHT31;53678;39.642;22.430;2023-05-02T13:20:02;18.10;56.38
65478;SHT31;53678;39.642;22.430;2023-05-02T13:22:28;18.14;56.71
65478;SHT31;53678;39.642;22.430;2023-05-02T13:24:54;18.02;57.21
65478;SHT31;53678;39.642;22.430;2023-05-02T13:27:23;17.90;57.41
65478;SHT31;53678;39.642;22.430;2023-05-02T13:29:50;18.00;56.29
65478;SHT31;53678;39.642;22.430;2023-05-02T13:32:16;18.00;55.64
65478;SHT31;53678;39.642;22.430;2023-05-02T13:34:44;17.94;55.82
65478;SHT31;53678;39.642;22.430;2023-05-02T13:37:10;17.86;54.99
65478;SHT31;53678;39.642;22.430;2023-05-02T13:39:36;17.89;55.23
65478;SHT31;53678;39.642;22.430;2023-05-02T13:42:01;17.81;55.99
65478;SHT31;53678;39.642;22.430;2023-05-02T13:44:28;17.72;56.69
65478;SHT31;53678;39.642;22.430;2023-05-02T13:46:55;17.60;57.18
65478;SHT31;53678;39.642;22.430;2023-05-02T13:49:20;17.63;57.58
65478;SHT31;53678;39.642;22.430;2023-05-02T13:51:47;17.66;58.05
65478;SHT31;53678;39.642;22.430;2023-05-02T13:54:14;17.67;57.82
65478;SHT31;53678;39.642;22.430;2023-05-02T13:56:41;17.57;57.69
65478;SHT31;53678;39.642;22.430;2023-05-02T13:59:07;17.62;58.11
65478;SHT31;53678;39.642;22.430;2023-05-02T14:01:33;17.53;58.28
65478;SHT31;53678;39.642;22.430;2023-05-02T14:03:59;17.54;58.73
65478;SHT31;53678;39.642;22.430;2023-05-02T14:06:25;17.54;58.02
65478;SHT31;53678;39.642;22.430;2023-05-02T14:08:51;17.50;57.99
65478;SHT31;53678;39.642;22.430;2023-05-02T14:11:16;17.47;57.66
65478;SHT31;53678;39.642;22.430;2023-05-02T14:13:42;17.43;58.75
65478;SHT31;53678;39.642;22.430;2023-05-02T14:16:09;17.33;59.58
65478;SHT31;53678;39.642;22.430;2023-05-02T14:18:35;17.25;60.68
65478;SHT31;53678;39.642;22.430;2023-05-02T14:21:01;17.19;60.93
65478;SHT31;53678;39.642;22.430;2023-05-02T14:23:27;17.11;62.11
65478;SHT31;53678;39.642;22.430;2023-05-02T14:25:54;17.07;62.34
65478;SHT31;53678;39.642;22.430;2023-05-02T14:28:21;16.98;62.68
65478;SHT31;53678;39.642;22.430;2023-05-02T14:30:47;17.01;63.66
65478;SHT31;53678;39.642;22.430;2023-05-02T14:33:13;16.89;64.07
65478;SHT31;53678;39.642;22.430;2023-05-02T14:35:40;17.01;65.23
65478;SHT31;53678;39.642;22.430;2023-05-02T14:38:06;16.67;66.55
65478;SHT31;53678;39.642;22.430;2023-05-02T14:40:32;16.52;68.48
65478;SHT31;53678;39.642;22.430;2023-05-02T14:42:59;16.32;70.02
65478;SHT31;53678;39.642;22.430;2023-05-02T14:45:25;15.99;71.40
65478;SHT31;53678;39.642;22.430;2023-05-02T14:47:51;15.94;71.78
65478;SHT31;53678;39.642;22.430;2023-05-02T14:50:18;15.85;72.43
65478;SHT31;53678;39.642;22.430;2023-05-02T14:52:43;15.87;71.49
65478;SHT31;53678;39.642;22.430;2023-05-02T14:55:12;15.87;72.37
65478;SHT31;53678;39.642;22.430;2023-05-02T14:57:38;15.79;72.60
65478;SHT31;53678;39.642;22.430;2023-05-02T15:00:04;15.88;72.90
65478;SHT31;53678;39.642;22.430;2023-05-02T15:02:35;15.81;71.60
65478;SHT31;53678;39.642;22.430;2023-05-02T15:05:02;15.85;70.54
65478;SHT31;53678;39.642;22.430;2023-05-02T15:07:28;15.84;70.49
65478;SHT31;53678;39.642;22.430;2023-05-02T15:09:53;15.85;70.41
65478;SHT31;53678;39.642;22.430;2023-05-02T15:12:19;15.95;70.20
65478;SHT31;53678;39.642;22.430;2023-05-02T15:14:45;15.92;70.34
65478;SHT31;53678;39.642;22.430;2023-05-02T15:17:12;15.99;71.34
65478;SHT31;53678;39.642;22.430;2023-05-02T15:19:38;15.92;71.16
65478;SHT31;53678;39.642;22.430;2023-05-02T15:22:03;15.88;72.05
65478;SHT31;53678;39.642;22.430;2023-05-02T15:24:29;15.91;70.71
65478;SHT31;53678;39.642;22.430;2023-05-02T15:26:55;16.06;71.51
65478;SHT31;53678;39.642;22.430;2023-05-02T15:29:21;16.05;70.75
65478;SHT31;53678;39.642;22.430;2023-05-02T15:31:47;16.16;71.76
65478;SHT31;53678;39.642;22.430;2023-05-02T15:34:12;16.10;71.40
65478;SHT31;53678;39.642;22.430;2023-05-02T15:36:38;16.16;71.49
65478;SHT31;53678;39.642;22.430;2023-05-02T15:39:05;16.13;72.40
65478;SHT31;53678;39.642;22.430;2023-05-02T15:41:32;16.29;73.47
65478;SHT31;53678;39.642;22.430;2023-05-02T15:43:58;16.27;72.92
65478;SHT31;53678;39.642;22.430;2023-05-02T15:46:24;16.26;72.15
65478;SHT31;53678;39.642;22.430;2023-05-02T15:48:50;16.36;73.39
65478;SHT31;53678;39.642;22.430;2023-05-02T15:51:16;16.40;74.73
65478;SHT31;53678;39.642;22.430;2023-05-02T15:53:42;16.50;75.92
65478;SHT31;53678;39.642;22.430;2023-05-02T15:56:13;16.63;76.55
65478;SHT31;53678;39.642;22.430;2023-05-02T15:58:39;16.52;77.70
65478;SHT31;53678;39.642;22.430;2023-05-02T16:01:05;16.59;77.83
65478;SHT31;53678;39.642;22.430;2023-05-02T16:03:31;16.50;78.68
65478;SHT31;53678;39.642;22.430;2023-05-02T16:05:59;16.29;79.34
65478;SHT31;53678;39.642;22.430;2023-05-02T16:08:26;16.32;80.20
65478;SHT31;53678;39.642;22.430;2023-05-02T16:10:53;16.39;81.54
65478;SHT31;53678;39.642;22.430;2023-05-02T16:13:19;16.37;81.33
65478;SHT31;53678;39.642;22.430;2023-05-02T16:15:46;16.19;81.66
65478;SHT31;53678;39.642;22.430;2023-05-02T16:18:18;16.16;82.53
65478;SHT31;53678;39.642;22.430;2023-05-02T16:20:44;16.10;83.04
65478;SHT31;53678;39.642;22.430;2023-05-02T16:23:13;16.01;82.96
65478;SHT31;53678;39.642;22.430;2023-05-02T16:25:39;16.10;83.44